Shacklefords, Virginia
Current Conditions -  °F | °C
As of 1:35 PM on Sunday 21 Dec 2014 (Local Time) from KFYJ Reporting Station
Scattered Clouds Scattered Clouds  
Wind Chill: 44°   Ceiling: Unl
Heat Index: 47°   Visibility: 10mi
Dew Point: 25°   Wind: 5mph
Humidity: 43%   Direction: 50°NE
Pressure: 30.32"   Gusts: NA
Location:  37.55°N, 76.73°W
Report Text: KFYJ 211835Z AUTO 05004KT 10SM SCT070 08/M04 A3032 RMK AO2 T00811039
Loading
Personal Weather Stations






























Interactive Weather Map New forecast layout! Learn more

10-Day Weather Forecast

Advertisements
Track Severe Weather on mobile